createdAt,value
2019-03-10T00:01:53.232Z,99.90
2019-03-10T00:06:58.426Z,99.90
2019-03-10T00:12:03.601Z,99.90
2019-03-10T00:17:08.970Z,99.90
2019-03-10T00:22:14.216Z,99.20
2019-03-10T00:27:38.550Z,98.30
2019-03-10T00:32:43.826Z,96.80
2019-03-10T00:37:49.143Z,95.90
2019-03-10T00:42:57.401Z,94.40
2019-03-10T00:48:05.575Z,94.90
2019-03-10T00:53:10.707Z,95.40
2019-03-10T00:58:16.523Z,95.40
2019-03-10T01:03:21.691Z,95.50
2019-03-10T01:08:27.413Z,95.30
2019-03-10T01:13:32.580Z,94.70
2019-03-10T01:18:58.605Z,93.90
2019-03-10T01:24:03.924Z,93.60
2019-03-10T01:29:09.182Z,93.40
2019-03-10T01:34:15.707Z,93.30
2019-03-10T01:39:20.974Z,93.30
2019-03-10T01:44:26.319Z,92.50
2019-03-10T01:49:31.450Z,92.20
2019-03-10T01:54:36.703Z,92.10
2019-03-10T01:59:41.780Z,91.70
2019-03-10T02:04:46.916Z,91.80
2019-03-10T02:09:52.706Z,92.20
2019-03-10T02:14:58.706Z,92.30
2019-03-10T02:20:07.081Z,91.70
2019-03-10T02:25:13.201Z,91.70
2019-03-10T02:30:19.573Z,91.20
2019-03-10T02:35:25.138Z,91.70
2019-03-10T02:40:30.685Z,91.40
2019-03-10T02:45:37.073Z,91.20
2019-03-10T02:50:43.743Z,91.70
2019-03-10T02:55:49.445Z,91.50
2019-03-10T03:00:55.210Z,92.00
2019-03-10T03:06:00.564Z,92.00
2019-03-10T03:11:05.486Z,91.80
2019-03-10T03:16:11.154Z,91.80
2019-03-10T03:21:43.110Z,91.30
2019-03-10T03:26:42.686Z,91.30
2019-03-10T03:31:47.841Z,91.20
2019-03-10T03:36:52.788Z,90.80
2019-03-10T03:41:57.942Z,90.80
2019-03-10T03:47:03.115Z,90.30
2019-03-10T03:52:08.582Z,90.00
2019-03-10T03:57:13.806Z,90.10
2019-03-10T04:02:21.010Z,90.50
2019-03-10T04:07:27.206Z,90.40
2019-03-10T04:12:32.691Z,90.10
2019-03-10T04:17:38.216Z,90.60
2019-03-10T04:22:43.398Z,90.80
2019-03-10T04:27:49.133Z,91.10
2019-03-10T04:32:54.279Z,90.30
2019-03-10T04:37:59.909Z,90.30
2019-03-10T04:43:04.995Z,90.20
2019-03-10T04:48:10.293Z,90.30
2019-03-10T04:53:15.497Z,90.60
2019-03-10T04:58:22.564Z,90.50
2019-03-10T05:03:27.954Z,90.80
2019-03-10T05:08:33.045Z,90.90
2019-03-10T05:13:38.262Z,91.10
2019-03-10T05:18:53.427Z,90.90
2019-03-10T05:24:01.836Z,91.00
2019-03-10T05:29:06.992Z,91.30
2019-03-10T05:34:12.146Z,91.20
2019-03-10T05:39:17.289Z,91.00
2019-03-10T05:44:22.700Z,91.30
2019-03-10T05:49:27.800Z,91.00
2019-03-10T05:54:33.081Z,90.80
2019-03-10T05:59:38.282Z,90.20
2019-03-10T06:04:44.884Z,90.10
2019-03-10T06:09:50.238Z,90.10
2019-03-10T06:14:55.310Z,89.60
2019-03-10T06:20:00.415Z,88.60
2019-03-10T06:25:07.071Z,88.70
2019-03-10T06:30:13.125Z,87.90
2019-03-10T06:35:18.202Z,87.80
2019-03-10T06:40:31.584Z,87.00
2019-03-10T06:45:30.354Z,87.20
2019-03-10T06:50:35.628Z,87.00
2019-03-10T06:55:40.970Z,85.90
2019-03-10T07:00:46.335Z,86.10
2019-03-10T07:05:51.454Z,86.00
2019-03-10T07:10:56.663Z,84.90
2019-03-10T07:16:02.208Z,85.20
2019-03-10T07:21:07.311Z,85.70
2019-03-10T07:26:12.212Z,84.90
2019-03-10T07:31:18.879Z,84.40
2019-03-10T07:36:25.382Z,84.40
2019-03-10T07:41:32.301Z,85.10
2019-03-10T07:46:39.081Z,83.30
2019-03-10T07:51:45.583Z,84.80
2019-03-10T07:56:52.490Z,84.10
2019-03-10T08:01:59.244Z,83.70
2019-03-10T08:07:06.000Z,83.00
2019-03-10T08:12:13.083Z,83.00
2019-03-10T08:17:20.216Z,82.50
2019-03-10T08:22:26.807Z,81.50
2019-03-10T08:27:33.733Z,83.10
2019-03-10T08:32:40.617Z,80.50
2019-03-10T08:38:07.083Z,80.60
2019-03-10T08:43:13.992Z,82.20
2019-03-10T08:48:20.876Z,80.30
2019-03-10T08:53:27.553Z,78.70
2019-03-10T08:58:34.467Z,80.00
2019-03-10T09:03:41.671Z,79.00
2019-03-10T09:08:48.492Z,79.40
2019-03-10T09:13:55.536Z,79.40
2019-03-10T09:19:01.034Z,77.40
2019-03-10T09:24:26.802Z,78.90
2019-03-10T09:29:33.599Z,78.80
2019-03-10T09:34:40.523Z,75.20
2019-03-10T09:39:47.461Z,75.40
2019-03-10T09:44:54.308Z,74.90
2019-03-10T09:50:00.788Z,73.40
2019-03-10T09:55:08.644Z,74.20
2019-03-10T10:00:34.598Z,75.30
2019-03-10T10:05:41.521Z,72.10
2019-03-10T10:10:48.473Z,70.90
2019-03-10T10:15:55.376Z,71.10
2019-03-10T10:21:03.300Z,70.60
2019-03-10T10:26:11.158Z,69.00
2019-03-10T10:31:17.947Z,71.30
2019-03-10T10:36:24.462Z,72.00
2019-03-10T10:41:31.271Z,69.50
2019-03-10T10:46:38.090Z,72.10
2019-03-10T10:51:44.777Z,68.90
2019-03-10T10:56:51.934Z,68.90
2019-03-10T11:01:58.998Z,69.00
2019-03-10T11:07:24.465Z,68.90
2019-03-10T11:18:09.535Z,68.50
2019-03-10T11:23:10.924Z,68.20
2019-03-10T11:28:17.745Z,67.70
2019-03-10T11:33:24.550Z,66.40
2019-03-10T11:38:31.189Z,68.10
2019-03-10T11:43:37.947Z,66.20
2019-03-10T11:48:44.734Z,68.50
2019-03-10T11:53:51.621Z,62.90
2019-03-10T11:58:58.344Z,64.30
2019-03-10T12:04:05.156Z,63.10
2019-03-10T12:09:12.286Z,64.90
2019-03-10T12:14:18.918Z,63.90
2019-03-10T12:19:25.005Z,63.00
2019-03-10T12:24:30.102Z,62.30
2019-03-10T12:29:35.140Z,62.40
2019-03-10T12:34:40.187Z,64.20
2019-03-10T12:39:45.358Z,65.60
2019-03-10T12:44:50.454Z,65.10
2019-03-10T12:49:55.553Z,65.00
2019-03-10T12:55:00.747Z,66.80
2019-03-10T13:00:08.940Z,67.40
2019-03-10T13:05:13.953Z,69.20
2019-03-10T13:10:19.210Z,70.40
2019-03-10T13:15:24.708Z,68.20
2019-03-10T13:20:29.823Z,68.30
2019-03-10T13:25:35.083Z,67.80
2019-03-10T13:30:39.967Z,68.50
2019-03-10T13:35:45.175Z,66.90
2019-03-10T13:40:50.292Z,66.90
2019-03-10T13:45:56.469Z,67.30
2019-03-10T13:51:01.228Z,66.30
2019-03-10T13:56:06.246Z,65.80
2019-03-10T14:01:11.261Z,66.40
2019-03-10T14:06:16.613Z,65.50
2019-03-10T14:11:21.733Z,68.50
2019-03-10T14:16:26.983Z,65.80
2019-03-10T14:21:32.473Z,64.00
2019-03-10T14:26:38.475Z,61.70
2019-03-10T14:31:43.541Z,61.00
2019-03-10T14:36:48.620Z,62.30
2019-03-10T14:42:13.444Z,62.50
2019-03-10T14:47:19.516Z,63.90
2019-03-10T14:52:27.823Z,65.70
2019-03-10T14:57:32.788Z,67.30
2019-03-10T15:02:37.954Z,66.50
2019-03-10T15:07:43.404Z,67.40
2019-03-10T15:12:48.759Z,67.30
2019-03-10T15:17:54.254Z,68.40
2019-03-10T15:22:59.507Z,68.10
2019-03-10T15:28:04.564Z,68.20
2019-03-10T15:33:29.113Z,68.00
2019-03-10T15:38:35.188Z,67.90
2019-03-10T15:43:40.106Z,68.20
2019-03-10T15:48:45.377Z,68.60
2019-03-10T15:53:50.503Z,69.50
2019-03-10T15:58:55.636Z,69.90
2019-03-10T16:04:04.339Z,69.40
2019-03-10T16:09:10.172Z,68.60
2019-03-10T16:14:15.477Z,69.30
2019-03-10T16:19:21.504Z,69.40
2019-03-10T16:24:27.416Z,70.20
2019-03-10T16:29:32.800Z,68.70
2019-03-10T16:34:38.386Z,66.60
2019-03-10T16:39:43.840Z,67.00
2019-03-10T16:44:48.949Z,66.00
2019-03-10T16:49:54.059Z,66.50
2019-03-10T16:54:59.527Z,67.40
2019-03-10T17:00:07.209Z,68.30
2019-03-10T17:05:15.854Z,68.50
2019-03-10T17:10:40.806Z,69.00
2019-03-10T17:15:46.206Z,70.50
2019-03-10T17:20:51.605Z,70.60
2019-03-10T17:25:56.402Z,71.60
2019-03-10T17:31:01.227Z,72.90
2019-03-10T17:36:25.838Z,74.20
2019-03-10T17:41:30.853Z,75.10
2019-03-10T17:46:35.963Z,76.30
2019-03-10T17:51:41.115Z,77.00
2019-03-10T17:57:05.472Z,77.80
2019-03-10T18:02:29.962Z,78.40
2019-03-10T18:07:35.154Z,79.50
2019-03-10T18:12:40.921Z,80.40
2019-03-10T18:17:45.878Z,81.50
2019-03-10T18:22:51.724Z,82.40
2019-03-10T18:27:57.127Z,82.70
2019-03-10T18:33:21.646Z,83.00
2019-03-10T18:38:26.809Z,83.90
2019-03-10T18:43:32.179Z,84.60
2019-03-10T18:48:37.546Z,85.20
2019-03-10T18:53:42.577Z,86.50
2019-03-10T18:59:06.746Z,86.90
2019-03-10T19:04:23.908Z,87.80
2019-03-10T19:09:29.033Z,89.00
2019-03-10T19:14:44.229Z,90.40
2019-03-10T19:19:49.548Z,90.50
2019-03-10T19:24:54.691Z,90.70
2019-03-10T19:30:20.780Z,90.80
2019-03-10T19:35:25.905Z,91.00
2019-03-10T19:40:31.900Z,91.20
2019-03-10T19:45:37.169Z,91.90
2019-03-10T19:50:42.514Z,92.90
2019-03-10T19:56:07.435Z,93.20
2019-03-10T20:01:12.597Z,93.60
2019-03-10T20:06:17.930Z,93.00
2019-03-10T20:11:22.985Z,94.00
2019-03-10T20:16:28.199Z,93.40
2019-03-10T20:21:33.500Z,94.00
2019-03-10T20:26:57.600Z,94.40
2019-03-10T20:32:13.164Z,95.00
2019-03-10T20:37:09.242Z,94.80
2019-03-10T20:42:34.313Z,94.60
2019-03-10T20:47:39.635Z,95.00
2019-03-10T20:52:44.725Z,95.30
2019-03-10T20:57:50.498Z,96.10
2019-03-10T21:02:55.555Z,96.10
2019-03-10T21:08:01.048Z,96.00
2019-03-10T21:13:06.236Z,96.20
2019-03-10T21:18:11.219Z,96.60
2019-03-10T21:23:17.010Z,97.20
2019-03-10T21:28:22.298Z,97.60
2019-03-10T21:33:46.793Z,97.70
2019-03-10T21:38:52.239Z,97.70
2019-03-10T21:43:57.474Z,97.70
2019-03-10T21:49:02.871Z,98.30
2019-03-10T21:54:27.299Z,98.60
2019-03-10T21:59:32.241Z,98.80
2019-03-10T22:04:37.591Z,98.90
2019-03-10T22:09:42.749Z,99.00
2019-03-10T22:14:48.142Z,99.10
2019-03-10T22:19:54.094Z,99.20
2019-03-10T22:24:59.080Z,99.30
2019-03-10T22:30:05.433Z,99.10
2019-03-10T22:35:10.958Z,99.00
2019-03-10T22:40:35.747Z,98.80
2019-03-10T22:45:41.091Z,98.50
2019-03-10T22:50:46.321Z,98.10
2019-03-10T22:56:10.805Z,98.50
2019-03-10T23:01:16.243Z,98.80
2019-03-10T23:06:21.707Z,99.10
2019-03-10T23:11:27.042Z,99.20
2019-03-10T23:16:32.365Z,99.30
2019-03-10T23:21:37.842Z,99.40
2019-03-10T23:26:43.269Z,99.30
2019-03-10T23:31:48.171Z,99.40
2019-03-10T23:36:53.440Z,99.40
2019-03-10T23:41:59.164Z,99.10
2019-03-10T23:47:04.387Z,99.10
2019-03-10T23:52:09.691Z,99.10
2019-03-10T23:57:34.080Z,98.90
